Terminal Aerodrome Forecast
Issued by NWS

Home | Current Version | Previous Version | Text Only | Print | Product List | Glossary On
Versions: 1 2 3 4 5 6 7 8 9 10 11 12 13 14 15 16 17 18 19
000
FTUS45 KABQ 021100 RRA
TAFGUP
TAF
KGUP 021142Z 0212/0312 19006KT P6SM FEW025 BKN070
     FM021730 21025G35KT P6SM SCT045 BKN070
     FM030000 23023G32KT P6SM -SHRA BKN035 OVC060
      TEMPO 0302/0306 4SM SHRA BR OVC015
     FM030800 24010KT P6SM BKN025=

USA.gov is the U.S. government's official web portal to all federal, state and local government web resources and services.